Time;durP1;ratioP1;P1;durP2;ratioP2;P2;SDS_P1;SDS_P2;PMS_P1;PMS_P2;Temp;Humidity;BMP_temperature;BMP_pressure;BME280_temperature;BME280_humidity;BME280_pressure;Samples;Min_cycle;Max_cycle;Signal;HPM_P1;HPM_P2
2023/05/11 00:00:27;;;;;;;136.25;62.05;;;;;;;18.17;47.38;101231.88;5056808;28;20045;-72
2023/05/11 00:02:52;;;;;;;142.05;62.90;;;;;;;18.17;47.88;101238.94;5056031;28;20021;-72
2023/05/11 00:05:17;;;;;;;140.52;62.10;;;;;;;18.16;47.96;101243.41;5054624;28;20029;-73
2023/05/11 00:07:43;;;;;;;142.23;63.08;;;;;;;18.15;47.71;101244.31;5049922;28;20017;-74
2023/05/11 00:10:08;;;;;;;142.77;63.28;;;;;;;18.16;47.68;101245.16;5052989;28;20473;-73
2023/05/11 00:12:34;;;;;;;140.32;63.78;;;;;;;18.16;47.32;101250.44;5052395;28;20117;-73
2023/05/11 00:14:59;;;;;;;142.10;62.78;;;;;;;18.15;47.94;101246.94;5033480;28;20021;-73
2023/05/11 00:17:25;;;;;;;147.43;65.18;;;;;;;18.14;48.03;101239.94;5052128;28;20108;-74
2023/05/11 00:19:50;;;;;;;143.18;64.05;;;;;;;18.15;48.02;101244.31;5052671;28;20025;-73
2023/05/11 00:22:15;;;;;;;152.30;63.55;;;;;;;18.15;48.00;101246.94;5034634;28;20033;-74
2023/05/11 00:24:41;;;;;;;141.32;62.95;;;;;;;18.14;47.66;101247.00;5055532;28;20029;-73
2023/05/11 00:27:06;;;;;;;144.82;62.63;;;;;;;18.13;47.77;101240.84;5054138;28;20028;-73
2023/05/11 00:29:31;;;;;;;141.45;63.17;;;;;;;18.14;47.39;101245.22;5047703;28;20033;-73
2023/05/11 00:31:57;;;;;;;147.40;63.33;;;;;;;18.12;47.34;101241.78;5054738;28;20088;-73
2023/05/11 00:34:22;;;;;;;149.77;64.25;;;;;;;18.12;47.67;101235.63;5045852;28;20103;-73
2023/05/11 00:36:48;;;;;;;153.68;65.22;;;;;;;18.12;47.87;101241.78;5051620;28;20020;-73
2023/05/11 00:39:13;;;;;;;135.40;61.33;;;;;;;18.12;48.04;101244.44;5051856;28;20484;-73
2023/05/11 00:41:39;;;;;;;150.40;64.07;;;;;;;18.11;47.59;101248.00;5051224;28;20021;-73
2023/05/11 00:44:04;;;;;;;149.27;62.67;;;;;;;18.11;47.63;101244.50;5047688;28;20392;-73
2023/05/11 00:46:30;;;;;;;141.68;62.42;;;;;;;18.10;47.79;101248.06;5052454;28;20024;-74
2023/05/11 00:48:55;;;;;;;140.15;63.63;;;;;;;18.10;47.28;101240.97;5053766;28;20112;-74
2023/05/11 00:51:21;;;;;;;139.90;62.13;;;;;;;18.09;47.56;101239.25;5051486;28;20028;-73
2023/05/11 00:53:47;;;;;;;143.70;61.97;;;;;;;18.09;47.60;101247.19;5046803;28;20024;-73
2023/05/11 00:56:12;;;;;;;149.45;64.10;;;;;;;18.08;47.28;101238.41;5051538;28;20021;-73
2023/05/11 00:58:38;;;;;;;140.30;62.25;;;;;;;18.07;47.83;101234.03;5062973;28;20059;-73
2023/05/11 01:01:04;;;;;;;147.02;63.83;;;;;;;18.07;47.83;101239.31;5051494;28;20021;-74
2023/05/11 01:03:30;;;;;;;138.07;61.55;;;;;;;18.06;47.65;101242.91;5050759;28;20032;-73
2023/05/11 01:06:09;;;;;;;143.77;63.92;;;;;;;18.07;47.24;101244.59;5052366;28;20053;-73
2023/05/11 01:08:52;;;;;;;133.15;60.47;;;;;;;18.06;47.98;101245.53;5053192;28;20013;-73
2023/05/11 01:11:33;;;;;;;152.68;64.82;;;;;;;18.06;47.99;101250.81;5052232;28;20123;-73
2023/05/11 01:14:06;;;;;;;140.45;62.22;;;;;;;18.05;47.51;101246.44;5039362;28;20036;-73
2023/05/11 01:16:34;;;;;;;140.25;62.17;;;;;;;18.05;47.52;101246.44;5046351;28;20023;-74
2023/05/11 01:19:25;;;;;;;146.85;63.65;;;;;;;18.04;47.79;101243.88;5058887;28;20029;-73
2023/05/11 01:21:50;;;;;;;139.45;61.35;;;;;;;18.03;47.60;101243.00;5054698;28;20024;-73
2023/05/11 01:24:23;;;;;;;158.95;65.45;;;;;;;18.03;47.47;101250.91;5038956;28;20025;-74
2023/05/11 01:26:48;;;;;;;143.48;62.35;;;;;;;18.04;47.82;101247.38;5049137;28;20088;-73
2023/05/11 01:29:35;;;;;;;150.90;65.13;;;;;;;18.03;47.63;101253.56;5051366;28;20048;-73
2023/05/11 01:32:05;;;;;;;144.43;63.60;;;;;;;18.03;47.33;101252.72;5045594;28;20044;-73
2023/05/11 01:34:33;;;;;;;139.35;61.63;;;;;;;18.02;47.47;101250.97;5050068;28;20031;-73
2023/05/11 01:37:05;;;;;;;138.93;61.72;;;;;;;18.01;47.40;101252.78;5062594;28;20024;-74
2023/05/11 01:39:39;;;;;;;140.32;61.97;;;;;;;18.01;47.44;101252.78;5035871;28;20022;-73
2023/05/11 01:42:09;;;;;;;140.18;62.45;;;;;;;18.00;47.43;101256.34;5050345;28;20390;-73
2023/05/11 01:44:36;;;;;;;140.80;63.35;;;;;;;18.01;47.25;101251.91;5033749;28;20025;-73
2023/05/11 01:47:02;;;;;;;136.43;62.38;;;;;;;18.00;47.58;101258.97;5049630;28;20098;-73
2023/05/11 01:49:29;;;;;;;138.70;62.00;;;;;;;18.00;47.62;101264.25;5043948;28;20029;-73
2023/05/11 01:51:54;;;;;;;138.63;62.55;;;;;;;17.99;47.40;101262.53;5048546;28;20086;-73
2023/05/11 01:54:20;;;;;;;154.88;64.30;;;;;;;17.99;47.53;101259.88;5049142;28;20445;-73
2023/05/11 01:56:46;;;;;;;137.73;60.35;;;;;;;17.99;47.27;101265.19;5037353;28;20116;-73
2023/05/11 01:59:13;;;;;;;135.23;61.40;;;;;;;17.99;47.41;101265.19;5058269;28;20092;-74
2023/05/11 02:01:39;;;;;;;138.70;61.97;;;;;;;17.98;47.58;101271.38;5050556;28;20513;-73
2023/05/11 02:04:06;;;;;;;154.55;64.50;;;;;;;17.98;47.14;101268.72;5050170;28;20129;-73
2023/05/11 02:06:33;;;;;;;149.45;63.33;;;;;;;17.99;47.75;101274.91;5063761;28;20024;-74
2023/05/11 02:09:00;;;;;;;141.73;61.20;;;;;;;17.98;47.13;101278.44;5036607;28;20052;-72
2023/05/11 02:11:25;;;;;;;136.88;60.80;;;;;;;17.97;47.27;101272.31;5055791;28;20433;-73
2023/05/11 02:13:52;;;;;;;131.27;59.20;;;;;;;17.96;47.43;101273.22;5054649;28;20029;-73
2023/05/11 02:16:18;;;;;;;141.68;63.45;;;;;;;17.97;47.23;101277.59;5053545;28;20060;-73
2023/05/11 02:18:44;;;;;;;137.32;61.67;;;;;;;17.96;47.77;101278.53;5044881;28;20064;-72
2023/05/11 02:21:13;;;;;;;138.98;62.55;;;;;;;17.96;47.19;101288.25;5037769;28;20389;-74
2023/05/11 02:23:39;;;;;;;138.32;62.95;;;;;;;17.95;47.46;101276.78;5054638;28;20551;-74
2023/05/11 02:26:05;;;;;;;139.38;61.50;;;;;;;17.95;47.51;101282.06;5042133;28;20549;-73
2023/05/11 02:28:31;;;;;;;147.70;62.97;;;;;;;17.95;47.40;101281.22;5047609;28;20031;-73
2023/05/11 02:30:59;;;;;;;141.65;62.20;;;;;;;17.95;47.83;101286.50;5053976;28;20032;-73
2023/05/11 02:33:30;;;;;;;138.90;61.45;;;;;;;17.95;47.76;101282.06;5055390;28;20493;-73
2023/05/11 02:35:56;;;;;;;137.38;60.60;;;;;;;17.95;47.06;101294.44;5053847;28;20486;-73
2023/05/11 02:38:30;;;;;;;134.88;61.53;;;;;;;17.94;47.62;101284.78;5044990;28;20391;-74
2023/05/11 02:40:58;;;;;;;140.88;62.78;;;;;;;17.94;47.76;101292.72;5053803;28;20071;-73
2023/05/11 02:43:24;;;;;;;138.38;61.55;;;;;;;17.93;47.18;101291.84;5037458;28;20032;-73
2023/05/11 02:45:52;;;;;;;138.70;62.08;;;;;;;17.93;47.19;101283.94;5036882;28;20021;-73
2023/05/11 02:48:25;;;;;;;138.40;61.40;;;;;;;17.93;47.37;101283.94;5044605;28;20025;-73
2023/05/11 02:50:52;;;;;;;138.00;61.35;;;;;;;17.94;47.38;101285.63;5053383;28;20482;-74
2023/05/11 02:53:19;;;;;;;135.50;61.35;;;;;;;17.93;47.63;101293.63;5065302;28;20074;-73
2023/05/11 02:55:44;;;;;;;133.68;61.88;;;;;;;17.92;47.48;101284.84;5073394;28;20029;-74
2023/05/11 02:58:10;;;;;;;132.85;60.63;;;;;;;17.92;47.54;101292.75;5057209;28;20028;-74
2023/05/11 03:00:37;;;;;;;138.40;62.53;;;;;;;17.92;47.47;101291.91;5053393;28;20017;-74
2023/05/11 03:03:03;;;;;;;139.05;61.72;;;;;;;17.91;47.51;101291.00;5053522;28;20020;-74
2023/05/11 03:05:28;;;;;;;142.02;62.25;;;;;;;17.91;47.74;101291.00;5042609;28;20404;-74
2023/05/11 03:07:56;;;;;;;140.43;61.50;;;;;;;17.91;47.33;101296.28;5052476;28;20033;-74
2023/05/11 03:10:23;;;;;;;137.88;62.05;;;;;;;17.91;47.62;101293.66;5053632;28;20111;-75
2023/05/11 03:12:49;;;;;;;139.13;64.32;;;;;;;17.90;47.68;101294.56;5053283;28;20025;-74
2023/05/11 03:15:14;;;;;;;142.48;63.17;;;;;;;17.90;47.34;101290.16;5053292;28;20025;-74
2023/05/11 03:17:40;;;;;;;138.75;61.38;;;;;;;17.90;47.59;101290.16;5044916;28;20032;-74
2023/05/11 03:20:07;;;;;;;137.10;60.55;;;;;;;17.89;47.16;101292.84;5054908;28;20048;-74
2023/05/11 03:22:34;;;;;;;149.07;62.88;;;;;;;17.90;47.14;101294.56;5034742;28;20370;-75
2023/05/11 03:25:01;;;;;;;136.25;61.10;;;;;;;17.90;47.47;101299.84;5036198;28;20031;-74
2023/05/11 03:27:28;;;;;;;139.90;62.10;;;;;;;17.90;47.05;101297.19;5049706;28;20029;-73
2023/05/11 03:29:54;;;;;;;137.75;61.72;;;;;;;17.89;47.68;101292.84;5039318;28;20114;-74
2023/05/11 03:32:20;;;;;;;137.35;61.95;;;;;;;17.89;47.81;101299.00;5051236;28;20033;-74
2023/05/11 03:34:45;;;;;;;142.48;62.60;;;;;;;17.89;47.18;101298.16;5052563;28;20031;-73
2023/05/11 03:37:12;;;;;;;142.85;60.47;;;;;;;17.88;47.46;101291.97;5047403;28;20029;-74
2023/05/11 03:39:38;;;;;;;136.27;60.65;;;;;;;17.89;46.83;101292.84;5048105;28;20024;-74
2023/05/11 03:42:04;;;;;;;139.27;62.20;;;;;;;17.88;46.97;101291.97;5035602;28;20025;-74
2023/05/11 03:44:31;;;;;;;134.90;60.58;;;;;;;17.88;47.45;101294.63;5052600;28;20025;-74
2023/05/11 03:46:58;;;;;;;134.02;60.72;;;;;;;17.88;47.43;101291.13;5033148;28;20029;-74
2023/05/11 03:49:24;;;;;;;133.65;60.33;;;;;;;17.88;47.43;101291.97;5046587;28;20108;-74
2023/05/11 03:51:50;;;;;;;135.27;60.70;;;;;;;17.88;47.35;101285.84;5053724;28;20100;-74
2023/05/11 03:54:15;;;;;;;153.90;64.03;;;;;;;17.88;47.30;101289.34;5052376;28;20052;-74
2023/05/11 03:56:41;;;;;;;145.57;61.40;;;;;;;17.88;47.37;101291.13;5051593;28;20031;-74
2023/05/11 03:59:06;;;;;;;137.60;60.63;;;;;;;17.88;47.02;101288.47;5044417;28;20120;-74
2023/05/11 04:01:32;;;;;;;137.07;60.30;;;;;;;17.88;46.79;101285.84;5053651;28;20122;-74
2023/05/11 04:03:57;;;;;;;136.77;60.58;;;;;;;17.88;46.88;101288.47;5052520;28;20116;-74
2023/05/11 04:06:23;;;;;;;136.65;59.95;;;;;;;17.89;46.78;101277.84;5052293;28;20117;-74
2023/05/11 04:08:49;;;;;;;131.18;59.88;;;;;;;17.89;47.54;101277.84;5043310;28;20095;-74
2023/05/11 04:11:15;;;;;;;138.57;62.13;;;;;;;17.89;46.86;101277.84;5053178;28;20096;-73
2023/05/11 04:13:40;;;;;;;135.48;60.92;;;;;;;17.90;47.54;101286.63;5035847;28;20127;-73
2023/05/11 04:16:06;;;;;;;138.52;60.75;;;;;;;17.91;46.91;101280.44;5051760;28;20020;-73
2023/05/11 04:18:31;;;;;;;136.15;61.28;;;;;;;17.90;47.12;101278.69;5044257;28;20053;-73
2023/05/11 04:20:56;;;;;;;138.77;61.10;;;;;;;17.90;47.11;101287.50;5050348;28;20096;-74
2023/05/11 04:23:22;;;;;;;137.23;60.00;;;;;;;17.92;46.94;101282.19;5051966;28;20037;-73
2023/05/11 04:25:53;;;;;;;140.13;62.13;;;;;;;17.94;47.31;101284.78;5050643;28;20033;-74
2023/05/11 04:28:18;;;;;;;133.30;61.08;;;;;;;17.95;46.88;101282.06;5035570;28;20437;-74
2023/05/11 04:30:43;;;;;;;139.63;61.13;;;;;;;17.95;46.92;101284.72;5044692;28;20017;-74
2023/05/11 04:33:09;;;;;;;140.18;60.40;;;;;;;17.96;47.14;101288.25;5039313;28;20050;-75
2023/05/11 04:35:38;;;;;;;136.65;60.03;;;;;;;17.97;46.81;101292.59;5055739;28;20498;-74
2023/05/11 04:38:03;;;;;;;135.45;60.13;;;;;;;17.97;46.69;101293.47;5046037;28;20029;-74
2023/05/11 04:40:29;;;;;;;138.55;60.47;;;;;;;17.97;46.58;101300.50;5057201;28;20027;-75
2023/05/11 04:42:54;;;;;;;139.10;62.28;;;;;;;17.98;46.76;101303.09;5089210;22;20105;-78
2023/05/11 04:45:20;;;;;;;141.02;62.30;;;;;;;17.99;46.50;101301.31;5052740;28;20021;-75
2023/05/11 04:47:45;;;;;;;136.90;61.22;;;;;;;18.00;46.63;101303.91;5052602;28;20159;-76
2023/05/11 04:50:10;;;;;;;136.13;60.72;;;;;;;18.02;47.11;101296.78;5056099;28;20025;-76
2023/05/11 04:52:36;;;;;;;134.98;60.53;;;;;;;18.02;47.12;101302.06;5014865;28;20029;-76
2023/05/11 04:55:01;;;;;;;164.25;64.22;;;;;;;18.04;46.92;101296.75;5004305;28;20022;-75
2023/05/11 04:57:26;;;;;;;147.60;63.97;;;;;;;18.04;46.34;101302.88;5019704;28;20518;-75
2023/05/11 04:59:52;;;;;;;142.80;61.80;;;;;;;18.04;46.42;101307.31;5024687;28;20044;-74
2023/05/11 05:02:17;;;;;;;142.32;61.80;;;;;;;18.06;46.62;101303.69;5026619;28;20025;-75
2023/05/11 05:04:42;;;;;;;145.63;62.63;;;;;;;18.06;47.04;101308.97;5051609;28;20037;-74
2023/05/11 05:07:08;;;;;;;159.23;63.08;;;;;;;18.07;46.58;101302.75;5040772;28;20033;-74
2023/05/11 05:09:33;;;;;;;141.00;61.03;;;;;;;18.08;46.72;101304.47;5034681;28;20389;-74
2023/05/11 05:11:58;;;;;;;149.05;62.42;;;;;;;18.10;46.67;101300.94;5018932;28;20026;-73
2023/05/11 05:14:24;;;;;;;143.63;61.63;;;;;;;18.10;47.04;101306.22;5034282;28;20021;-73
2023/05/11 05:16:49;;;;;;;141.52;61.30;;;;;;;18.09;46.32;101310.63;5065783;28;20025;-73
2023/05/11 05:19:14;;;;;;;152.15;63.60;;;;;;;18.08;46.39;101309.78;5038815;28;20067;-74
2023/05/11 05:21:40;;;;;;;144.57;62.92;;;;;;;18.08;46.49;101317.69;5064368;28;20093;-74
2023/05/11 05:24:05;;;;;;;145.45;62.25;;;;;;;18.08;46.38;101320.34;5041819;28;20149;-74
2023/05/11 05:26:31;;;;;;;140.88;60.72;;;;;;;18.08;46.57;101314.22;5020990;28;20025;-75
2023/05/11 05:28:56;;;;;;;136.75;59.75;;;;;;;18.07;46.61;101310.69;5019126;28;20033;-75
2023/05/11 05:31:23;;;;;;;139.10;61.28;;;;;;;18.07;46.93;101313.31;5016946;28;20121;-74
2023/05/11 05:33:48;;;;;;;134.07;61.15;;;;;;;18.06;46.47;101316.91;5035495;28;20025;-76
2023/05/11 05:36:13;;;;;;;135.63;61.50;;;;;;;18.07;46.30;101323.03;5016530;28;20040;-76
2023/05/11 05:38:39;;;;;;;138.18;60.92;;;;;;;18.06;46.67;101322.19;5024169;28;20474;-76
2023/05/11 05:41:04;;;;;;;139.10;62.15;;;;;;;18.05;46.67;101327.50;5018292;28;20013;-76
2023/05/11 05:43:29;;;;;;;141.20;62.63;;;;;;;18.06;47.08;101327.47;5008588;28;20099;-76
2023/05/11 05:45:55;;;;;;;138.27;60.70;;;;;;;18.05;47.08;101324.88;5030174;28;20029;-76
2023/05/11 05:48:20;;;;;;;138.18;61.22;;;;;;;18.04;46.31;101331.94;4997799;28;20072;-76
2023/05/11 05:50:46;;;;;;;149.23;64.18;;;;;;;18.05;46.00;101330.16;5039855;28;20077;-75
2023/05/11 05:53:11;;;;;;;142.20;62.08;;;;;;;18.06;46.37;101335.41;5010327;28;20028;-76
2023/05/11 05:55:36;;;;;;;143.13;62.10;;;;;;;18.06;46.14;101339.81;4990634;28;20041;-77
2023/05/11 05:58:02;;;;;;;137.43;61.28;;;;;;;18.05;46.01;101338.97;5018027;28;20037;-76
2023/05/11 06:00:27;;;;;;;137.60;60.92;;;;;;;18.05;46.43;101340.72;5020911;28;20068;-76
2023/05/11 06:02:52;;;;;;;142.70;61.63;;;;;;;18.04;46.22;101339.88;5007237;28;20090;-76
2023/05/11 06:05:18;;;;;;;142.90;62.72;;;;;;;18.06;46.73;101348.63;4994965;28;20478;-76
2023/05/11 06:07:43;;;;;;;137.30;60.28;;;;;;;18.07;46.51;101345.03;4995753;28;20397;-76
2023/05/11 06:10:09;;;;;;;168.27;65.07;;;;;;;18.09;46.05;101350.28;5023546;28;20144;-75
2023/05/11 06:12:34;;;;;;;143.90;62.33;;;;;;;18.10;46.18;101353.78;5005636;28;20040;-74
2023/05/11 06:15:00;;;;;;;138.43;60.17;;;;;;;18.11;46.09;101351.09;5000343;28;20457;-75
2023/05/11 06:17:27;;;;;;;153.05;62.10;;;;;;;18.11;45.99;101350.25;5029185;28;20029;-76
2023/05/11 06:19:52;;;;;;;152.73;62.83;;;;;;;18.13;46.33;101354.53;4999132;28;20026;-74
2023/05/11 06:22:18;;;;;;;148.82;62.67;;;;;;;18.14;45.98;101356.25;5007296;28;20025;-75
2023/05/11 06:24:43;;;;;;;141.30;61.22;;;;;;;18.15;46.11;101351.84;4992976;28;20479;-75
2023/05/11 06:27:08;;;;;;;135.75;59.70;;;;;;;18.15;46.34;101347.41;5011931;28;20501;-74
2023/05/11 06:29:34;;;;;;;135.52;60.42;;;;;;;18.17;45.65;101350.00;4996549;28;20025;-75
2023/05/11 06:31:59;;;;;;;143.38;61.72;;;;;;;18.17;45.81;101350.00;5010369;28;20498;-75
2023/05/11 06:34:24;;;;;;;154.65;61.78;;;;;;;18.18;46.06;101357.00;5008920;28;20037;-75
2023/05/11 06:36:50;;;;;;;150.32;63.60;;;;;;;18.18;45.97;101352.56;4997747;28;20144;-75
2023/05/11 06:39:15;;;;;;;137.20;59.45;;;;;;;18.18;45.53;101349.09;5015993;28;20094;-75
2023/05/11 06:41:41;;;;;;;143.75;62.67;;;;;;;18.19;46.08;101353.47;4999800;28;20410;-75
2023/05/11 06:44:07;;;;;;;149.20;62.03;;;;;;;18.20;45.77;101350.75;5016726;28;20120;-74
2023/05/11 06:46:32;;;;;;;140.00;61.53;;;;;;;18.20;45.83;101357.81;5016171;28;20021;-74
2023/05/11 06:48:57;;;;;;;140.52;61.28;;;;;;;18.21;46.19;101362.19;5041274;28;20033;-75
2023/05/11 06:51:23;;;;;;;135.90;60.25;;;;;;;18.20;46.34;101360.44;5028903;28;20037;-77
2023/05/11 06:53:48;;;;;;;132.13;60.65;;;;;;;18.21;46.14;101362.19;5025336;28;20040;-75
2023/05/11 06:56:14;;;;;;;153.57;63.70;;;;;;;18.21;45.96;101363.03;5011058;28;20038;-76
2023/05/11 06:58:39;;;;;;;146.52;63.03;;;;;;;18.21;45.86;101360.38;5011417;28;20037;-75
2023/05/11 07:01:06;;;;;;;147.23;66.20;;;;;;;18.22;45.78;101366.56;4997462;28;20048;-73
2023/05/11 07:03:32;;;;;;;136.05;60.10;;;;;;;18.23;46.03;101363.84;5005755;28;20021;-76
2023/05/11 07:05:57;;;;;;;140.88;61.78;;;;;;;18.22;45.95;101364.75;5015499;28;20025;-76
2023/05/11 07:08:23;;;;;;;141.00;60.58;;;;;;;18.22;45.59;101364.75;5016580;28;20117;-76
2023/05/11 07:10:48;;;;;;;142.27;62.47;;;;;;;18.22;46.36;101367.41;5032385;28;20108;-76
2023/05/11 07:13:13;;;;;;;141.23;60.55;;;;;;;18.23;45.93;101361.19;5017072;28;20025;-75
2023/05/11 07:15:39;;;;;;;134.57;59.67;;;;;;;18.24;45.99;101367.34;4999959;28;20508;-76
2023/05/11 07:18:04;;;;;;;145.23;62.63;;;;;;;18.24;46.20;101362.06;5013280;28;20037;-77
2023/05/11 07:20:30;;;;;;;139.00;60.78;;;;;;;18.23;46.01;101369.13;5014065;28;20020;-77
2023/05/11 07:22:57;;;;;;;144.07;61.88;;;;;;;18.26;45.81;101372.59;5034922;28;20033;-77
2023/05/11 07:25:22;;;;;;;154.70;64.07;;;;;;;18.27;46.12;101369.91;5016798;28;20030;-77
2023/05/11 07:27:48;;;;;;;147.30;61.75;;;;;;;18.27;46.48;101369.00;5014782;28;20040;-77
2023/05/11 07:30:13;;;;;;;141.35;61.13;;;;;;;18.27;45.82;101369.00;4998531;28;20108;-77
2023/05/11 07:32:38;;;;;;;136.65;60.38;;;;;;;18.26;45.88;101368.16;5015251;28;20029;-77
2023/05/11 07:35:04;;;;;;;144.15;60.72;;;;;;;18.26;45.68;101365.53;5034132;28;20028;-77
2023/05/11 07:37:29;;;;;;;137.20;60.90;;;;;;;18.27;46.08;101367.25;5015432;28;20380;-77
2023/05/11 07:39:55;;;;;;;143.45;62.13;;;;;;;18.28;45.94;101368.09;5015121;28;20032;-77
2023/05/11 07:42:20;;;;;;;139.68;62.03;;;;;;;18.29;45.51;101368.03;5026664;28;20017;-77
2023/05/11 07:44:45;;;;;;;145.75;61.90;;;;;;;18.32;45.62;101367.91;5030503;28;20461;-76
2023/05/11 07:47:12;;;;;;;166.77;65.78;;;;;;;18.35;45.35;101375.75;5007679;28;20030;-77
2023/05/11 07:49:37;;;;;;;148.82;62.38;;;;;;;18.36;45.93;101377.44;5005692;28;20025;-78
2023/05/11 07:52:02;;;;;;;138.88;60.75;;;;;;;18.38;45.98;101375.63;5027774;28;20025;-77
2023/05/11 07:54:28;;;;;;;138.15;62.67;;;;;;;18.40;45.45;101372.91;5036591;28;20025;-76
2023/05/11 07:56:53;;;;;;;170.50;70.57;;;;;;;18.41;45.98;101379.94;5003272;28;20028;-78
2023/05/11 07:59:18;;;;;;;141.88;61.92;;;;;;;18.42;45.72;101382.53;5029446;28;20029;-77
2023/05/11 08:01:44;;;;;;;138.93;60.80;;;;;;;18.44;45.18;101378.97;5015721;28;20040;-77
2023/05/11 08:04:09;;;;;;;155.18;63.70;;;;;;;18.45;45.48;101385.97;5014864;28;20177;-76
2023/05/11 08:06:35;;;;;;;139.02;60.25;;;;;;;18.47;45.74;101389.41;5008834;28;20030;-75
2023/05/11 08:09:00;;;;;;;138.15;59.38;;;;;;;18.45;45.72;101391.25;5016607;28;20021;-76
2023/05/11 08:11:26;;;;;;;142.73;61.95;;;;;;;18.44;45.22;101387.75;4990886;28;20041;-77
2023/05/11 08:13:51;;;;;;;144.48;61.45;;;;;;;18.46;46.08;101387.69;5008246;28;20021;-77
2023/05/11 08:16:17;;;;;;;138.80;60.47;;;;;;;18.45;45.94;101385.97;5028981;28;20111;-76
2023/05/11 08:18:43;;;;;;;139.18;60.10;;;;;;;18.45;45.65;101384.19;5001705;28;20171;-77
2023/05/11 08:21:08;;;;;;;136.73;59.60;;;;;;;18.45;45.36;101388.59;5009324;28;20028;-76
2023/05/11 08:23:33;;;;;;;139.00;60.92;;;;;;;18.46;45.92;101392.97;5031432;28;20029;-77
2023/05/11 08:25:59;;;;;;;152.00;62.22;;;;;;;18.48;45.49;101391.16;5010655;28;20041;-77
2023/05/11 08:28:24;;;;;;;158.05;65.10;;;;;;;18.47;45.16;101397.34;5010470;28;20112;-77
2023/05/11 08:30:57;;;;;;;149.30;62.60;;;;;;;18.45;45.52;101385.97;5014599;28;20590;-76
2023/05/11 08:33:23;;;;;;;148.52;61.55;;;;;;;18.46;45.08;101390.34;5015246;28;20029;-75
2023/05/11 08:35:48;;;;;;;152.70;62.55;;;;;;;18.48;45.57;101392.00;5012746;28;20034;-76
2023/05/11 08:38:14;;;;;;;154.18;64.18;;;;;;;18.50;45.33;101394.59;5000080;28;20226;-76
2023/05/11 08:40:46;;;;;;;147.10;61.83;;;;;;;18.53;45.80;101394.50;5009813;28;20029;-77
2023/05/11 08:43:12;;;;;;;170.38;65.88;;;;;;;18.53;45.76;101394.50;5004484;28;20033;-77
2023/05/11 08:45:40;;;;;;;136.10;61.28;;;;;;;18.53;45.57;101384.75;5047362;28;20104;-76
2023/05/11 08:48:05;;;;;;;141.13;62.17;;;;;;;18.54;45.28;101396.19;5015739;28;20037;-77
2023/05/11 08:50:31;;;;;;;153.05;64.15;;;;;;;18.55;45.81;101392.63;5022747;28;20033;-77
2023/05/11 08:52:56;;;;;;;141.68;63.10;;;;;;;18.56;45.73;101383.78;5018064;28;20044;-77
2023/05/11 08:55:25;;;;;;;141.35;61.45;;;;;;;18.58;46.22;101395.16;5001300;28;20025;-77
2023/05/11 08:57:51;;;;;;;151.55;64.05;;;;;;;18.57;45.69;101396.09;5007376;28;20731;-76
2023/05/11 09:00:17;;;;;;;151.10;62.90;;;;;;;18.53;46.04;101394.50;5001706;28;20021;-76
2023/05/11 09:02:42;;;;;;;148.73;61.17;;;;;;;18.51;45.37;101401.59;5036858;28;20099;-77
2023/05/11 09:05:08;;;;;;;146.23;62.25;;;;;;;18.51;45.52;101398.97;5022164;28;20020;-75
2023/05/11 09:07:36;;;;;;;145.25;61.90;;;;;;;18.49;46.02;101398.19;5017642;28;20563;-76
2023/05/11 09:10:02;;;;;;;135.18;60.40;;;;;;;18.46;45.18;101401.78;5005785;28;20256;-77
2023/05/11 09:12:27;;;;;;;143.63;61.20;;;;;;;18.42;45.88;101395.75;5006964;28;20064;-77
2023/05/11 09:14:53;;;;;;;142.32;61.03;;;;;;;18.41;45.92;101396.66;5021288;28;20020;-77
2023/05/11 09:17:18;;;;;;;138.23;61.83;;;;;;;18.40;45.88;101397.56;4997943;28;20024;-77
2023/05/11 09:20:03;;;;;;;135.95;60.00;;;;;;;18.40;45.78;101405.50;5024892;28;20038;-76
2023/05/11 09:22:31;;;;;;;139.38;60.47;;;;;;;18.40;45.76;101399.38;4997365;28;20502;-77
2023/05/11 09:24:57;;;;;;;144.65;61.53;;;;;;;18.38;45.86;101401.22;4997619;28;20039;-76
2023/05/11 09:27:23;;;;;;;144.70;61.78;;;;;;;18.35;45.94;101402.19;5006181;28;20030;-77
2023/05/11 09:29:51;;;;;;;141.50;61.35;;;;;;;18.33;46.03;101401.38;5013717;28;20082;-77
2023/05/11 09:32:17;;;;;;;142.25;62.30;;;;;;;18.32;45.79;101404.94;5008943;28;20028;-77
2023/05/11 09:34:42;;;;;;;140.45;60.67;;;;;;;18.31;46.05;101405.88;4996841;28;20395;-77
2023/05/11 09:37:15;;;;;;;156.38;62.88;;;;;;;18.30;45.37;101404.16;5018090;28;20021;-77
2023/05/11 09:39:41;;;;;;;145.73;71.93;;;;;;;18.30;46.46;101404.16;5013672;28;20476;-76
2023/05/11 09:42:17;;;;;;;141.00;62.38;;;;;;;18.31;45.89;101411.16;5001522;28;20021;-77
2023/05/11 09:44:43;;;;;;;157.00;70.63;;;;;;;18.32;45.86;101412.88;5020858;28;20023;-76
2023/05/11 09:47:11;;;;;;;144.55;61.90;;;;;;;18.33;46.39;101411.09;5020543;28;20112;-77
2023/05/11 09:49:37;;;;;;;163.82;65.47;;;;;;;18.33;46.13;101414.59;5007133;28;20052;-76
2023/05/11 09:52:03;;;;;;;140.93;64.22;;;;;;;18.34;46.34;101411.03;5006258;28;20021;-77
2023/05/11 09:54:28;;;;;;;143.30;62.35;;;;;;;18.33;45.70;101414.59;4995183;28;20029;-77
2023/05/11 09:56:57;;;;;;;163.52;64.85;;;;;;;18.32;45.92;101409.38;5013485;28;20030;-77
2023/05/11 09:59:39;;;;;;;152.73;64.13;;;;;;;18.30;45.58;101417.38;5032492;28;20064;-76
2023/05/11 10:02:28;;;;;;;151.07;61.42;;;;;;;18.28;45.94;101407.75;5021637;28;20025;-76
2023/05/11 10:04:55;;;;;;;161.70;64.78;;;;;;;18.26;46.22;101407.81;5005755;28;20040;-77
2023/05/11 10:07:24;;;;;;;149.40;63.38;;;;;;;18.26;45.87;101414.91;5024818;28;20607;-77
2023/05/11 10:09:55;;;;;;;139.48;61.25;;;;;;;18.24;46.09;101409.66;5035892;28;20033;-78
2023/05/11 10:12:22;;;;;;;140.95;62.00;;;;;;;18.23;45.99;101408.78;5034649;28;20081;-77
2023/05/11 10:14:50;;;;;;;140.00;65.75;;;;;;;18.24;45.49;101410.53;5032203;28;20029;-77
2023/05/11 10:17:16;;;;;;;140.38;61.58;;;;;;;18.29;45.83;101414.78;5012491;28;20072;-79
2023/05/11 10:19:41;;;;;;;138.18;61.80;;;;;;;18.31;45.69;101405.00;5004132;28;20479;-77
2023/05/11 10:22:07;;;;;;;140.73;62.30;;;;;;;18.35;45.46;101411.91;5016005;28;20498;-76
2023/05/11 10:24:33;;;;;;;153.48;61.92;;;;;;;18.40;46.10;101408.16;5014415;28;20036;-77
2023/05/11 10:26:59;;;;;;;135.98;59.90;;;;;;;18.45;45.74;101407.13;5000018;28;20025;-77
2023/05/11 10:29:24;;;;;;;140.00;61.03;;;;;;;18.50;45.37;101405.16;5021449;28;20063;-78
2023/05/11 10:31:50;;;;;;;142.18;61.42;;;;;;;18.55;45.60;101400.56;5003959;28;20025;-78
2023/05/11 10:34:16;;;;;;;153.05;63.38;;;;;;;18.61;45.05;101404.75;5003693;28;20022;-78
2023/05/11 10:36:44;;;;;;;140.10;61.00;;;;;;;18.62;45.31;101394.09;5002940;28;20021;-76
2023/05/11 10:39:10;;;;;;;144.63;62.42;;;;;;;18.65;45.07;101391.38;5003170;28;20048;-77
2023/05/11 10:41:54;;;;;;;143.68;61.67;;;;;;;18.66;45.25;101401.00;5014331;28;20021;-77
2023/05/11 10:44:50;;;;;;;162.15;65.00;;;;;;;18.64;45.13;101397.56;5010066;28;20080;-77
2023/05/11 10:47:30;;;;;;;;;;;;;;;18.64;44.60;101397.56;5003079;28;20036;-76
2023/05/11 10:50:14;;;;;;;156.20;62.92;;;;;;;18.64;45.07;101400.22;5020629;28;19935;-77
2023/05/11 10:52:58;;;;;;;142.07;62.00;;;;;;;18.60;44.69;101401.25;5020373;28;20417;-77
2023/05/11 10:55:45;;;;;;;140.25;62.25;;;;;;;18.57;45.53;101401.38;5033105;28;20333;-77
2023/05/11 10:58:18;;;;;;;148.07;61.78;;;;;;;18.53;46.02;101403.28;5028766;28;20272;-76
2023/05/11 11:01:16;;;;;;;150.55;63.17;;;;;;;18.52;46.33;101404.19;5036642;28;20056;-77